createdAt,value
2022-10-21T00:00:59.070Z,978.4
2022-10-21T00:06:30.747Z,978.39
2022-10-21T00:12:02.597Z,978.31
2022-10-21T00:17:34.282Z,978.43
2022-10-21T00:23:06.003Z,978.35
2022-10-21T00:28:37.814Z,978.42
2022-10-21T00:34:09.390Z,978.53
2022-10-21T00:39:41.106Z,978.34
2022-10-21T00:45:17.222Z,978.19
2022-10-21T00:50:48.957Z,978.08
2022-10-21T00:56:20.661Z,978.11
2022-10-21T01:01:52.434Z,977.89
2022-10-21T01:07:24.189Z,977.9
2022-10-21T01:12:55.965Z,978.0
2022-10-21T01:18:27.540Z,978.11
2022-10-21T01:23:59.619Z,978.13
2022-10-21T01:29:31.151Z,978.16
2022-10-21T01:35:02.789Z,978.23
2022-10-21T01:40:34.529Z,978.12
2022-10-21T01:46:10.553Z,977.85
2022-10-21T01:51:42.438Z,977.81
2022-10-21T01:57:14.070Z,977.78
2022-10-21T02:02:45.796Z,977.92
2022-10-21T02:08:17.610Z,978.14
2022-10-21T02:13:49.341Z,977.99
2022-10-21T02:19:21.163Z,977.82
2022-10-21T02:24:52.676Z,977.54
2022-10-21T02:30:24.478Z,977.26
2022-10-21T02:35:56.186Z,977.36
2022-10-21T02:41:27.886Z,977.31
2022-10-21T02:47:04.235Z,977.35
2022-10-21T02:52:35.718Z,977.6
2022-10-21T02:58:07.381Z,977.61
2022-10-21T03:03:39.175Z,977.47
2022-10-21T03:09:11.006Z,977.51
2022-10-21T03:14:42.622Z,977.46
2022-10-21T03:20:14.570Z,977.31
2022-10-21T03:25:46.022Z,977.39
2022-10-21T03:31:17.645Z,977.56
2022-10-21T03:36:49.389Z,977.35
2022-10-21T03:42:21.141Z,977.59
2022-10-21T03:47:57.262Z,977.55
2022-10-21T03:53:44.275Z,977.44
2022-10-21T03:59:00.782Z,977.37
2022-10-21T04:04:32.555Z,978.0
2022-10-21T04:10:04.501Z,978.01
2022-10-21T04:15:35.923Z,977.68
2022-10-21T04:21:07.626Z,977.85
2022-10-21T04:26:39.467Z,977.42
2022-10-21T04:32:11.020Z,977.44
2022-10-21T04:37:42.830Z,977.7
2022-10-21T04:43:15.282Z,977.46
2022-10-21T04:48:51.366Z,977.58
2022-10-21T04:54:23.210Z,977.61
2022-10-21T04:59:54.965Z,978.02
2022-10-21T05:05:26.658Z,977.84
2022-10-21T05:10:58.473Z,977.93
2022-10-21T05:16:30.186Z,977.71
2022-10-21T05:22:01.784Z,977.98
2022-10-21T05:27:33.602Z,977.72
2022-10-21T05:33:05.299Z,977.49
2022-10-21T05:38:37.060Z,977.55
2022-10-21T05:44:08.796Z,977.58
2022-10-21T05:49:44.881Z,977.5
2022-10-21T05:55:16.582Z,977.25
2022-10-21T06:00:48.452Z,977.28
2022-10-21T06:06:20.026Z,977.36
2022-10-21T06:11:51.759Z,977.23
2022-10-21T06:17:23.481Z,977.13
2022-10-21T06:22:55.174Z,977.32
2022-10-21T06:28:26.831Z,977.96
2022-10-21T06:33:58.686Z,978.14
2022-10-21T06:39:30.376Z,978.32
2022-10-21T06:45:02.078Z,978.23
2022-10-21T06:50:40.166Z,978.36
2022-10-21T06:56:11.926Z,978.18
2022-10-21T07:02:01.777Z,978.01
2022-10-21T07:07:15.350Z,978.33
2022-10-21T07:12:47.070Z,978.3
2022-10-21T07:18:18.822Z,978.22
2022-10-21T07:23:50.486Z,978.31
2022-10-21T07:29:22.349Z,978.02
2022-10-21T07:34:54.118Z,978.13
2022-10-21T07:40:25.642Z,978.18
2022-10-21T07:45:57.418Z,978.2
2022-10-21T07:51:33.539Z,978.36
2022-10-21T07:57:05.298Z,978.45
2022-10-21T08:02:37.813Z,978.27
2022-10-21T08:08:08.772Z,978.14
2022-10-21T08:13:40.494Z,978.14
2022-10-21T08:19:12.145Z,977.84
2022-10-21T08:24:43.786Z,978.36
2022-10-21T08:30:15.601Z,978.14
2022-10-21T08:35:47.246Z,978.37
2022-10-21T08:41:19.038Z,978.2
2022-10-21T08:46:50.761Z,977.98
2022-10-21T08:52:26.840Z,978.39
2022-10-21T08:57:58.576Z,978.39
2022-10-21T09:03:30.413Z,978.42
2022-10-21T09:09:02.423Z,978.29
2022-10-21T09:14:33.771Z,978.6
2022-10-21T09:20:05.753Z,978.82
2022-10-21T09:25:37.166Z,979.28
2022-10-21T09:31:08.993Z,978.79
2022-10-21T09:36:40.738Z,979.26
2022-10-21T09:42:48.047Z,979.19
2022-10-21T09:47:44.157Z,979.39
2022-10-21T09:53:27.125Z,979.66
2022-10-21T09:59:03.946Z,979.73
2022-10-21T10:04:25.738Z,979.83
2022-10-21T10:09:57.409Z,979.61
2022-10-21T10:15:32.200Z,979.59
2022-10-21T10:21:00.945Z,979.83
2022-10-21T10:26:32.504Z,979.87
2022-10-21T10:32:04.313Z,980.08
2022-10-21T10:37:36.247Z,979.83
2022-10-21T10:43:07.813Z,979.78
2022-10-21T10:48:39.519Z,979.68
2022-10-21T10:54:17.673Z,979.76
2022-10-21T10:56:50.064Z,979.76
2022-10-21T11:02:21.504Z,979.65
2022-10-21T11:07:53.183Z,979.54
2022-10-21T11:13:24.960Z,979.71
2022-10-21T11:18:56.664Z,979.66
2022-10-21T11:24:28.449Z,979.64
2022-10-21T11:30:00.154Z,979.74
2022-10-21T11:35:32.000Z,979.83
2022-10-21T11:41:03.727Z,979.96
2022-10-21T11:46:35.355Z,979.9
2022-10-21T11:52:07.066Z,980.03
2022-10-21T11:57:43.406Z,979.7
2022-10-21T12:03:14.909Z,979.45
2022-10-21T12:08:51.806Z,979.38
2022-10-21T12:14:18.393Z,979.45
2022-10-21T12:19:50.167Z,979.33
2022-10-21T12:25:22.066Z,979.27
2022-10-21T12:30:53.693Z,979.34
2022-10-21T12:36:25.450Z,979.3
2022-10-21T12:41:57.101Z,979.15
2022-10-21T12:47:28.905Z,979.09
2022-10-21T12:53:00.587Z,978.99
2022-10-21T12:58:38.686Z,979.01
2022-10-21T13:04:10.433Z,979.02
2022-10-21T13:09:42.179Z,979.0
2022-10-21T13:15:16.624Z,979.04
2022-10-21T13:20:48.656Z,979.3
2022-10-21T13:26:20.387Z,978.8
2022-10-21T13:31:52.135Z,978.47
2022-10-21T13:37:23.819Z,978.44
2022-10-21T13:42:55.625Z,978.47
2022-10-21T13:48:27.166Z,978.32
2022-10-21T13:53:59.035Z,978.05
2022-10-21T13:59:35.104Z,978.14
2022-10-21T14:05:06.943Z,978.03
2022-10-21T14:10:38.505Z,977.9
2022-10-21T14:16:10.432Z,977.59
2022-10-21T14:21:42.058Z,977.56
2022-10-21T14:27:13.830Z,977.84
2022-10-21T14:32:45.472Z,977.78
2022-10-21T14:38:17.262Z,977.73
2022-10-21T14:43:48.915Z,977.68
2022-10-21T14:49:20.880Z,977.31
2022-10-21T14:54:52.351Z,977.46
2022-10-21T15:00:30.956Z,977.38
2022-10-21T15:06:00.226Z,977.4
2022-10-21T15:11:32.082Z,977.31
2022-10-21T15:17:03.863Z,976.99
2022-10-21T15:22:35.413Z,977.1
2022-10-21T15:28:07.281Z,976.76
2022-10-21T15:33:38.958Z,976.71
2022-10-21T15:39:10.798Z,976.94
2022-10-21T15:44:42.465Z,977.0
2022-10-21T15:50:14.158Z,976.98
2022-10-21T15:55:46.110Z,976.68
2022-10-21T16:01:22.227Z,976.64
2022-10-21T16:06:53.877Z,976.63
2022-10-21T16:12:25.441Z,976.56
2022-10-21T16:17:57.229Z,976.59
2022-10-21T16:23:28.870Z,976.55
2022-10-21T16:29:00.718Z,976.52
2022-10-21T16:34:32.380Z,976.62
2022-10-21T16:40:04.210Z,976.35
2022-10-21T16:45:36.010Z,976.46
2022-10-21T16:51:07.603Z,976.43
2022-10-21T16:56:39.449Z,976.62
2022-10-21T17:02:15.606Z,976.51
2022-10-21T17:07:47.378Z,976.51
2022-10-21T17:13:19.021Z,976.55
2022-10-21T17:18:50.738Z,976.42
2022-10-21T17:32:58.403Z,976.57
2022-10-21T17:38:29.659Z,976.55
2022-10-21T17:44:01.442Z,976.35
2022-10-21T17:49:32.911Z,976.26
2022-10-21T17:55:04.643Z,976.31
2022-10-21T18:00:38.970Z,976.2
2022-10-21T18:06:12.623Z,976.19
2022-10-21T18:11:44.273Z,976.28
2022-10-21T18:17:15.854Z,976.05
2022-10-21T18:22:47.597Z,975.76
2022-10-21T18:28:19.401Z,975.91
2022-10-21T18:33:51.061Z,975.93
2022-10-21T18:39:22.782Z,975.97
2022-10-21T18:44:54.720Z,975.76
2022-10-21T18:50:26.310Z,975.66
2022-10-21T18:55:58.245Z,975.73
2022-10-21T19:01:30.025Z,975.69
2022-10-21T19:07:05.865Z,975.7
2022-10-21T19:12:38.073Z,975.64
2022-10-21T19:18:09.690Z,975.64
2022-10-21T19:23:40.990Z,975.61
2022-10-21T19:29:12.751Z,975.59
2022-10-21T19:34:44.411Z,975.64
2022-10-21T19:40:16.454Z,975.71
2022-10-21T19:45:48.166Z,975.73
2022-10-21T19:51:19.827Z,975.86
2022-10-21T19:56:51.669Z,975.8
2022-10-21T20:02:23.069Z,975.88
2022-10-21T20:07:59.449Z,976.04
2022-10-21T20:13:31.136Z,975.96
2022-10-21T20:19:03.078Z,976.03
2022-10-21T20:24:34.695Z,976.16
2022-10-21T20:30:06.382Z,976.26
2022-10-21T20:41:09.624Z,976.42
2022-10-21T20:46:41.631Z,976.39
2022-10-21T20:52:13.161Z,976.41
2022-10-21T20:57:44.810Z,976.06
2022-10-21T21:03:16.800Z,976.15
2022-10-21T21:10:02.001Z,976.21
2022-10-21T21:14:26.320Z,976.03
2022-10-21T21:19:58.143Z,976.19
2022-10-21T21:25:29.819Z,976.24
2022-10-21T21:31:01.787Z,976.6
2022-10-21T21:36:33.356Z,976.56
2022-10-21T21:42:05.081Z,976.3
2022-10-21T21:47:37.894Z,976.69
2022-10-21T21:53:08.729Z,976.44
2022-10-21T21:58:40.178Z,976.49
2022-10-21T22:04:11.922Z,976.14
2022-10-21T22:09:48.194Z,975.89
2022-10-21T22:15:48.822Z,975.91
2022-10-21T22:20:51.727Z,975.85
2022-10-21T22:26:23.191Z,975.81
2022-10-21T22:31:55.405Z,975.94
2022-10-21T22:37:26.706Z,975.82
2022-10-21T22:42:58.622Z,975.79
2022-10-21T22:48:30.263Z,976.04
2022-10-21T22:54:02.566Z,976.33
2022-10-21T22:59:33.696Z,976.49
2022-10-21T23:05:05.544Z,976.32
2022-10-21T23:10:41.486Z,976.63
2022-10-21T23:16:13.139Z,976.8
2022-10-21T23:21:44.790Z,976.7
2022-10-21T23:27:16.654Z,976.94
2022-10-21T23:32:48.349Z,977.16
2022-10-21T23:38:20.617Z,976.36
2022-10-21T23:43:51.705Z,976.4
2022-10-21T23:49:23.731Z,976.76
2022-10-21T23:54:55.586Z,976.16
